createdAt,value
2023-01-24T00:16:33.998Z,91.54
2023-01-24T00:45:03.761Z,91.31
2023-01-24T01:13:36.837Z,91.05
2023-01-24T01:42:09.234Z,91.34
2023-01-24T02:10:19.458Z,91.28
2023-01-24T02:38:48.539Z,91.67
2023-01-24T03:07:19.546Z,91.71
2023-01-24T03:35:53.240Z,91.65
2023-01-24T04:04:13.878Z,91.46
2023-01-24T04:32:39.866Z,91.48
2023-01-24T05:01:13.124Z,91.58
2023-01-24T05:29:47.502Z,91.77
2023-01-24T05:58:16.284Z,91.57
2023-01-24T06:26:42.288Z,91.52
2023-01-24T06:55:05.017Z,91.98
2023-01-24T07:23:32.436Z,92.27
2023-01-24T07:51:52.210Z,92.51
2023-01-24T08:20:24.761Z,91.97
2023-01-24T08:48:46.000Z,91.71
2023-01-24T09:17:22.284Z,90.88
2023-01-24T09:46:13.633Z,90.59
2023-01-24T10:14:21.065Z,90.82
2023-01-24T10:42:57.664Z,90.16
2023-01-24T11:11:28.771Z,89.11
2023-01-24T11:39:41.146Z,88.72
2023-01-24T12:08:01.577Z,87.81
2023-01-24T12:36:34.693Z,87.73
2023-01-24T13:04:57.892Z,87.87
2023-01-24T13:33:29.087Z,87.31
2023-01-24T14:01:48.594Z,87.74
2023-01-24T14:30:11.562Z,87.78
2023-01-24T14:58:44.237Z,87.96
2023-01-24T15:27:09.636Z,88.31
2023-01-24T15:55:53.039Z,88.82
2023-01-24T16:24:12.738Z,89.36
2023-01-24T16:52:24.042Z,89.56
2023-01-24T17:21:01.932Z,90.14
2023-01-24T17:49:37.107Z,91.01
2023-01-24T18:18:20.284Z,90.99
2023-01-24T18:46:56.901Z,91.53
2023-01-24T19:15:59.346Z,91.8
2023-01-24T19:44:41.273Z,91.83
2023-01-24T20:13:32.202Z,92.36
2023-01-24T20:41:52.573Z,92.3
2023-01-24T21:10:41.078Z,92.7
2023-01-24T21:39:29.599Z,93.25
2023-01-24T22:08:03.400Z,93.72
2023-01-24T22:36:45.029Z,94.31
2023-01-24T23:05:04.127Z,94.33
2023-01-24T23:33:43.372Z,94.68
